sensor_id;sensor_type;location;lat;lon;timestamp;pressure;altitude;pressure_sealevel;temperature;humidity
9822;BME280;4950;46.042;14.472;2023-03-23T00:00:52;97760.50;;;11.78;61.94
9822;BME280;4950;46.042;14.472;2023-03-23T00:03:21;97758.81;;;11.71;61.51
9822;BME280;4950;46.042;14.472;2023-03-23T00:05:50;97760.97;;;11.67;61.64
9822;BME280;4950;46.042;14.472;2023-03-23T00:08:17;97765.22;;;11.68;61.88
9822;BME280;4950;46.042;14.472;2023-03-23T00:10:48;97766.00;;;11.69;61.74
9822;BME280;4950;46.042;14.472;2023-03-23T00:13:15;97760.00;;;11.68;61.99
9822;BME280;4950;46.042;14.472;2023-03-23T00:15:44;97766.97;;;11.68;62.01
9822;BME280;4950;46.042;14.472;2023-03-23T00:18:14;97761.59;;;11.69;61.66
9822;BME280;4950;46.042;14.472;2023-03-23T00:20:48;97756.59;;;11.68;61.82
9822;BME280;4950;46.042;14.472;2023-03-23T00:23:15;97756.41;;;11.69;61.74
9822;BME280;4950;46.042;14.472;2023-03-23T00:25:45;97757.94;;;11.63;61.67
9822;BME280;4950;46.042;14.472;2023-03-23T00:28:11;97757.25;;;11.55;61.47
9822;BME280;4950;46.042;14.472;2023-03-23T00:30:39;97763.09;;;11.42;61.78
9822;BME280;4950;46.042;14.472;2023-03-23T00:33:07;97756.41;;;11.33;62.64
9822;BME280;4950;46.042;14.472;2023-03-23T00:35:34;97756.75;;;11.30;62.24
9822;BME280;4950;46.042;14.472;2023-03-23T00:38:02;97756.94;;;11.28;62.09
9822;BME280;4950;46.042;14.472;2023-03-23T00:40:29;97757.94;;;11.27;61.36
9822;BME280;4950;46.042;14.472;2023-03-23T00:42:56;97753.66;;;11.19;60.89
9822;BME280;4950;46.042;14.472;2023-03-23T00:45:23;97748.34;;;11.13;61.17
9822;BME280;4950;46.042;14.472;2023-03-23T00:47:50;97747.22;;;11.15;61.05
9822;BME280;4950;46.042;14.472;2023-03-23T00:50:17;97742.00;;;11.15;60.94
9822;BME280;4950;46.042;14.472;2023-03-23T00:52:43;97738.25;;;11.18;61.00
9822;BME280;4950;46.042;14.472;2023-03-23T00:55:11;97744.78;;;11.14;61.25
9822;BME280;4950;46.042;14.472;2023-03-23T00:57:38;97745.75;;;11.13;61.65
9822;BME280;4950;46.042;14.472;2023-03-23T01:00:06;97756.69;;;11.08;61.94
9822;BME280;4950;46.042;14.472;2023-03-23T01:02:36;97748.84;;;11.01;62.31
9822;BME280;4950;46.042;14.472;2023-03-23T01:05:06;97745.41;;;11.01;62.85
9822;BME280;4950;46.042;14.472;2023-03-23T01:07:33;97746.59;;;10.98;62.80
9822;BME280;4950;46.042;14.472;2023-03-23T01:09:59;97749.28;;;10.90;63.33
9822;BME280;4950;46.042;14.472;2023-03-23T01:12:28;97749.28;;;10.90;63.07
9822;BME280;4950;46.042;14.472;2023-03-23T01:14:55;97737.44;;;10.87;63.34
9822;BME280;4950;46.042;14.472;2023-03-23T01:17:22;97746.84;;;10.74;64.02
9822;BME280;4950;46.042;14.472;2023-03-23T01:19:48;97733.94;;;10.65;64.32
9822;BME280;4950;46.042;14.472;2023-03-23T01:22:15;97735.56;;;10.66;64.61
9822;BME280;4950;46.042;14.472;2023-03-23T01:24:42;97731.00;;;10.69;64.00
9822;BME280;4950;46.042;14.472;2023-03-23T01:27:08;97725.88;;;10.60;64.52
9822;BME280;4950;46.042;14.472;2023-03-23T01:29:36;97735.00;;;10.56;64.36
9822;BME280;4950;46.042;14.472;2023-03-23T01:32:03;97717.47;;;10.58;64.66
9822;BME280;4950;46.042;14.472;2023-03-23T01:34:30;97722.47;;;10.60;64.52
9822;BME280;4950;46.042;14.472;2023-03-23T01:36:56;97722.75;;;10.65;64.45
9822;BME280;4950;46.042;14.472;2023-03-23T01:39:23;97725.53;;;10.63;64.72
9822;BME280;4950;46.042;14.472;2023-03-23T01:41:50;97721.06;;;10.57;65.29
9822;BME280;4950;46.042;14.472;2023-03-23T01:47:22;97718.47;;;10.57;65.67
9822;BME280;4950;46.042;14.472;2023-03-23T01:49:52;97719.25;;;10.43;65.98
9822;BME280;4950;46.042;14.472;2023-03-23T01:52:22;97713.53;;;10.47;66.57
9822;BME280;4950;46.042;14.472;2023-03-23T01:54:52;97712.91;;;10.45;66.89
9822;BME280;4950;46.042;14.472;2023-03-23T01:57:22;97710.19;;;10.39;66.74
9822;BME280;4950;46.042;14.472;2023-03-23T01:59:54;97719.03;;;10.30;67.00
9822;BME280;4950;46.042;14.472;2023-03-23T02:02:25;97710.28;;;10.31;67.45
9822;BME280;4950;46.042;14.472;2023-03-23T02:04:55;97710.16;;;10.24;68.04
9822;BME280;4950;46.042;14.472;2023-03-23T02:07:24;97718.81;;;10.16;67.56
9822;BME280;4950;46.042;14.472;2023-03-23T02:09:51;97714.88;;;10.20;67.96
9822;BME280;4950;46.042;14.472;2023-03-23T02:12:18;97715.59;;;10.14;68.45
9822;BME280;4950;46.042;14.472;2023-03-23T02:14:45;97709.69;;;10.20;68.39
9822;BME280;4950;46.042;14.472;2023-03-23T02:17:17;97712.28;;;10.20;68.46
9822;BME280;4950;46.042;14.472;2023-03-23T02:20:02;97710.75;;;10.11;68.50
9822;BME280;4950;46.042;14.472;2023-03-23T02:22:47;97711.91;;;10.08;68.74
9822;BME280;4950;46.042;14.472;2023-03-23T02:25:40;97707.50;;;10.09;68.86
9822;BME280;4950;46.042;14.472;2023-03-23T02:31:27;97705.22;;;9.91;69.26
9822;BME280;4950;46.042;14.472;2023-03-23T02:34:00;97706.22;;;9.90;69.28
9822;BME280;4950;46.042;14.472;2023-03-23T02:36:36;97708.13;;;9.96;69.48
9822;BME280;4950;46.042;14.472;2023-03-23T02:39:08;97712.38;;;9.89;69.56
9822;BME280;4950;46.042;14.472;2023-03-23T02:41:47;97708.81;;;9.90;69.77
9822;BME280;4950;46.042;14.472;2023-03-23T02:44:16;97701.03;;;9.90;69.95
9822;BME280;4950;46.042;14.472;2023-03-23T02:46:43;97704.94;;;9.86;70.15
9822;BME280;4950;46.042;14.472;2023-03-23T02:49:14;97709.00;;;9.88;70.38
9822;BME280;4950;46.042;14.472;2023-03-23T02:51:44;97708.16;;;9.88;69.56
9822;BME280;4950;46.042;14.472;2023-03-23T02:54:13;97702.34;;;9.86;69.40
9822;BME280;4950;46.042;14.472;2023-03-23T02:56:42;97702.25;;;9.79;69.98
9822;BME280;4950;46.042;14.472;2023-03-23T02:59:09;97707.13;;;9.74;70.43
9822;BME280;4950;46.042;14.472;2023-03-23T03:02:01;97700.19;;;9.75;70.12
9822;BME280;4950;46.042;14.472;2023-03-23T03:04:32;97696.13;;;9.72;69.99
9822;BME280;4950;46.042;14.472;2023-03-23T03:07:23;97705.53;;;9.73;70.19
9822;BME280;4950;46.042;14.472;2023-03-23T03:09:54;97701.31;;;9.72;69.62
9822;BME280;4950;46.042;14.472;2023-03-23T03:12:29;97705.69;;;9.72;70.43
9822;BME280;4950;46.042;14.472;2023-03-23T03:15:07;97695.03;;;9.66;70.19
9822;BME280;4950;46.042;14.472;2023-03-23T03:17:39;97703.34;;;9.62;70.32
9822;BME280;4950;46.042;14.472;2023-03-23T03:20:11;97705.28;;;9.60;70.21
9822;BME280;4950;46.042;14.472;2023-03-23T03:22:41;97698.69;;;9.57;70.92
9822;BME280;4950;46.042;14.472;2023-03-23T03:25:10;97701.97;;;9.51;70.35
9822;BME280;4950;46.042;14.472;2023-03-23T03:27:39;97694.41;;;9.41;71.08
9822;BME280;4950;46.042;14.472;2023-03-23T03:30:10;97701.88;;;9.36;71.49
9822;BME280;4950;46.042;14.472;2023-03-23T03:32:41;97703.94;;;9.41;71.48
9822;BME280;4950;46.042;14.472;2023-03-23T03:35:13;97711.25;;;9.37;72.02
9822;BME280;4950;46.042;14.472;2023-03-23T03:37:40;97707.84;;;9.37;71.35
9822;BME280;4950;46.042;14.472;2023-03-23T03:40:09;97717.75;;;9.33;71.78
9822;BME280;4950;46.042;14.472;2023-03-23T03:42:38;97710.03;;;9.25;72.50
9822;BME280;4950;46.042;14.472;2023-03-23T03:45:06;97709.91;;;9.18;72.97
9822;BME280;4950;46.042;14.472;2023-03-23T03:47:33;97709.09;;;9.18;72.48
9822;BME280;4950;46.042;14.472;2023-03-23T03:50:00;97709.75;;;9.12;72.98
9822;BME280;4950;46.042;14.472;2023-03-23T03:52:28;97713.00;;;9.14;73.16
9822;BME280;4950;46.042;14.472;2023-03-23T03:54:55;97715.88;;;9.19;72.61
9822;BME280;4950;46.042;14.472;2023-03-23T03:57:22;97707.31;;;9.18;72.82
9822;BME280;4950;46.042;14.472;2023-03-23T03:59:49;97719.59;;;9.24;72.80
9822;BME280;4950;46.042;14.472;2023-03-23T04:02:16;97711.03;;;9.24;72.73
9822;BME280;4950;46.042;14.472;2023-03-23T04:04:45;97718.53;;;9.11;72.89
9822;BME280;4950;46.042;14.472;2023-03-23T04:07:12;97716.91;;;9.09;73.10
9822;BME280;4950;46.042;14.472;2023-03-23T04:09:43;97709.47;;;9.06;73.09
9822;BME280;4950;46.042;14.472;2023-03-23T04:12:11;97716.16;;;8.93;73.25
9822;BME280;4950;46.042;14.472;2023-03-23T04:14:38;97730.22;;;8.90;74.13
9822;BME280;4950;46.042;14.472;2023-03-23T04:17:05;97721.19;;;8.86;74.25
9822;BME280;4950;46.042;14.472;2023-03-23T04:19:32;97721.88;;;8.80;74.35
9822;BME280;4950;46.042;14.472;2023-03-23T04:21:59;97722.34;;;8.83;73.98
9822;BME280;4950;46.042;14.472;2023-03-23T04:24:26;97718.75;;;8.84;74.54
9822;BME280;4950;46.042;14.472;2023-03-23T04:26:58;97723.31;;;8.91;73.76
9822;BME280;4950;46.042;14.472;2023-03-23T04:29:24;97724.72;;;8.93;73.62
9822;BME280;4950;46.042;14.472;2023-03-23T04:31:52;97724.91;;;8.92;74.02
9822;BME280;4950;46.042;14.472;2023-03-23T04:34:21;97715.34;;;8.92;73.94
9822;BME280;4950;46.042;14.472;2023-03-23T04:36:48;97724.72;;;8.93;73.61
9822;BME280;4950;46.042;14.472;2023-03-23T04:39:15;97728.66;;;8.81;73.96
9822;BME280;4950;46.042;14.472;2023-03-23T04:41:41;97729.94;;;8.85;74.05
9822;BME280;4950;46.042;14.472;2023-03-23T04:44:10;97726.88;;;8.81;73.71
9822;BME280;4950;46.042;14.472;2023-03-23T04:46:43;97730.91;;;8.84;74.04
9822;BME280;4950;46.042;14.472;2023-03-23T04:49:15;97733.84;;;8.81;73.70
9822;BME280;4950;46.042;14.472;2023-03-23T04:51:47;97724.59;;;8.78;74.06
9822;BME280;4950;46.042;14.472;2023-03-23T04:54:16;97734.97;;;8.78;74.00
9822;BME280;4950;46.042;14.472;2023-03-23T04:56:43;97737.72;;;8.77;74.11
9822;BME280;4950;46.042;14.472;2023-03-23T04:59:11;97739.03;;;8.81;73.80
9822;BME280;4950;46.042;14.472;2023-03-23T05:01:38;97739.34;;;8.78;73.87
9822;BME280;4950;46.042;14.472;2023-03-23T05:04:11;97740.50;;;8.75;73.80
9822;BME280;4950;46.042;14.472;2023-03-23T05:06:38;97741.78;;;8.63;74.72
9822;BME280;4950;46.042;14.472;2023-03-23T05:09:06;97736.94;;;8.68;73.98
9822;BME280;4950;46.042;14.472;2023-03-23T05:11:33;97740.97;;;8.70;74.26
9822;BME280;4950;46.042;14.472;2023-03-23T05:13:59;97737.44;;;8.63;74.30
9822;BME280;4950;46.042;14.472;2023-03-23T05:16:27;97747.28;;;8.68;74.87
9822;BME280;4950;46.042;14.472;2023-03-23T05:18:55;97745.66;;;8.67;74.24
9822;BME280;4950;46.042;14.472;2023-03-23T05:21:23;97750.84;;;8.67;74.27
9822;BME280;4950;46.042;14.472;2023-03-23T05:23:51;97749.22;;;8.74;74.18
9822;BME280;4950;46.042;14.472;2023-03-23T05:26:20;97745.34;;;8.70;74.41
9822;BME280;4950;46.042;14.472;2023-03-23T05:28:47;97746.78;;;8.73;74.82
9822;BME280;4950;46.042;14.472;2023-03-23T05:31:18;97762.50;;;8.71;74.48
9822;BME280;4950;46.042;14.472;2023-03-23T05:33:46;97753.91;;;8.70;73.95
9822;BME280;4950;46.042;14.472;2023-03-23T05:36:13;97765.25;;;8.61;74.61
9822;BME280;4950;46.042;14.472;2023-03-23T05:38:40;97763.94;;;8.57;75.81
9822;BME280;4950;46.042;14.472;2023-03-23T05:41:10;97774.13;;;8.67;75.02
9822;BME280;4950;46.042;14.472;2023-03-23T05:43:37;97772.53;;;8.66;75.04
9822;BME280;4950;46.042;14.472;2023-03-23T05:46:04;97768.50;;;8.63;75.78
9822;BME280;4950;46.042;14.472;2023-03-23T05:48:31;97773.16;;;8.68;75.08
9822;BME280;4950;46.042;14.472;2023-03-23T05:50:59;97782.38;;;8.70;76.42
9822;BME280;4950;46.042;14.472;2023-03-23T05:53:26;97777.84;;;8.73;75.78
9822;BME280;4950;46.042;14.472;2023-03-23T05:55:58;97773.16;;;8.68;76.86
9822;BME280;4950;46.042;14.472;2023-03-23T05:58:25;97776.53;;;8.77;76.42
9822;BME280;4950;46.042;14.472;2023-03-23T06:00:51;97782.84;;;8.82;75.88
9822;BME280;4950;46.042;14.472;2023-03-23T06:03:18;97773.75;;;8.86;75.81
9822;BME280;4950;46.042;14.472;2023-03-23T06:05:46;97783.97;;;8.88;75.16
9822;BME280;4950;46.042;14.472;2023-03-23T06:08:14;97788.97;;;8.89;75.21
9822;BME280;4950;46.042;14.472;2023-03-23T06:10:41;97789.63;;;8.83;75.28
9822;BME280;4950;46.042;14.472;2023-03-23T06:13:07;97795.28;;;8.79;75.26
9822;BME280;4950;46.042;14.472;2023-03-23T06:15:34;97800.31;;;8.80;75.99
9822;BME280;4950;46.042;14.472;2023-03-23T06:18:01;97804.84;;;8.78;75.50
9822;BME280;4950;46.042;14.472;2023-03-23T06:20:29;97803.53;;;8.82;75.51
9822;BME280;4950;46.042;14.472;2023-03-23T06:22:55;97805.31;;;8.90;75.72
9822;BME280;4950;46.042;14.472;2023-03-23T06:25:24;97801.41;;;8.94;75.21
9822;BME280;4950;46.042;14.472;2023-03-23T06:27:51;97809.50;;;8.99;75.39
9822;BME280;4950;46.042;14.472;2023-03-23T06:30:18;97805.28;;;9.06;75.57
9822;BME280;4950;46.042;14.472;2023-03-23T06:32:45;97806.72;;;9.09;75.70
9822;BME280;4950;46.042;14.472;2023-03-23T06:35:12;97806.84;;;9.16;76.09
9822;BME280;4950;46.042;14.472;2023-03-23T06:37:40;97806.84;;;9.24;75.48
9822;BME280;4950;46.042;14.472;2023-03-23T06:40:08;97804.53;;;9.29;75.65
9822;BME280;4950;46.042;14.472;2023-03-23T06:42:37;97801.28;;;9.35;75.26
9822;BME280;4950;46.042;14.472;2023-03-23T06:45:05;97800.78;;;9.40;74.69
9822;BME280;4950;46.042;14.472;2023-03-23T06:47:33;97795.75;;;9.46;74.95
9822;BME280;4950;46.042;14.472;2023-03-23T06:50:00;97797.00;;;9.51;75.15
9822;BME280;4950;46.042;14.472;2023-03-23T06:52:27;97795.06;;;9.53;74.99
9822;BME280;4950;46.042;14.472;2023-03-23T06:54:54;97801.19;;;9.60;75.26
9822;BME280;4950;46.042;14.472;2023-03-23T06:57:21;97792.09;;;9.64;75.00
9822;BME280;4950;46.042;14.472;2023-03-23T06:59:49;97798.69;;;9.75;74.67
9822;BME280;4950;46.042;14.472;2023-03-23T07:02:16;97803.03;;;9.82;74.38
9822;BME280;4950;46.042;14.472;2023-03-23T07:04:42;97798.75;;;9.89;74.46
9822;BME280;4950;46.042;14.472;2023-03-23T07:07:11;97804.22;;;9.95;74.07
9822;BME280;4950;46.042;14.472;2023-03-23T07:09:40;97799.63;;;10.05;74.12
9822;BME280;4950;46.042;14.472;2023-03-23T07:12:07;97802.63;;;10.17;73.05
9822;BME280;4950;46.042;14.472;2023-03-23T07:14:35;97804.00;;;10.27;72.75
9822;BME280;4950;46.042;14.472;2023-03-23T07:17:03;97800.69;;;10.42;71.99
9822;BME280;4950;46.042;14.472;2023-03-23T07:19:31;97804.69;;;10.44;71.54
9822;BME280;4950;46.042;14.472;2023-03-23T07:21:57;97809.22;;;10.51;71.99
9822;BME280;4950;46.042;14.472;2023-03-23T07:24:24;97804.13;;;10.57;72.44
9822;BME280;4950;46.042;14.472;2023-03-23T07:26:51;97806.34;;;10.60;71.80
9822;BME280;4950;46.042;14.472;2023-03-23T07:29:18;97814.25;;;10.67;71.30
9822;BME280;4950;46.042;14.472;2023-03-23T07:31:45;97816.78;;;10.75;71.18
9822;BME280;4950;46.042;14.472;2023-03-23T07:34:13;97810.53;;;10.84;70.32
9822;BME280;4950;46.042;14.472;2023-03-23T07:36:40;97813.38;;;10.90;70.06
9822;BME280;4950;46.042;14.472;2023-03-23T07:39:07;97806.88;;;10.94;69.64
9822;BME280;4950;46.042;14.472;2023-03-23T07:41:33;97797.63;;;11.06;69.42
9822;BME280;4950;46.042;14.472;2023-03-23T07:44:00;97799.34;;;11.14;69.13
9822;BME280;4950;46.042;14.472;2023-03-23T07:46:27;97801.84;;;11.22;68.87
9822;BME280;4950;46.042;14.472;2023-03-23T07:48:54;97792.34;;;11.29;68.97
9822;BME280;4950;46.042;14.472;2023-03-23T07:51:23;97798.25;;;11.38;68.52
9822;BME280;4950;46.042;14.472;2023-03-23T07:53:50;97800.03;;;11.52;69.26
9822;BME280;4950;46.042;14.472;2023-03-23T07:56:18;97793.38;;;11.64;68.48
9822;BME280;4950;46.042;14.472;2023-03-23T07:58:45;97797.19;;;11.83;67.08
9822;BME280;4950;46.042;14.472;2023-03-23T08:01:12;97793.31;;;11.94;66.03
9822;BME280;4950;46.042;14.472;2023-03-23T08:03:39;97797.22;;;12.05;66.28
9822;BME280;4950;46.042;14.472;2023-03-23T08:06:06;97790.34;;;12.19;66.15
9822;BME280;4950;46.042;14.472;2023-03-23T08:08:35;97790.22;;;12.27;65.79
9822;BME280;4950;46.042;14.472;2023-03-23T08:11:02;97787.13;;;12.38;65.13
9822;BME280;4950;46.042;14.472;2023-03-23T08:13:29;97782.19;;;12.50;64.80
9822;BME280;4950;46.042;14.472;2023-03-23T08:15:56;97786.75;;;12.70;64.05
9822;BME280;4950;46.042;14.472;2023-03-23T08:18:23;97784.03;;;12.84;63.31
9822;BME280;4950;46.042;14.472;2023-03-23T08:20:50;97780.72;;;12.97;63.25
9822;BME280;4950;46.042;14.472;2023-03-23T08:23:18;97783.19;;;13.12;62.68
9822;BME280;4950;46.042;14.472;2023-03-23T08:25:47;97779.22;;;13.23;62.54
9822;BME280;4950;46.042;14.472;2023-03-23T08:28:14;97784.13;;;13.39;62.42
9822;BME280;4950;46.042;14.472;2023-03-23T08:30:41;97773.38;;;13.56;61.47
9822;BME280;4950;46.042;14.472;2023-03-23T08:33:08;97775.81;;;13.64;60.90
9822;BME280;4950;46.042;14.472;2023-03-23T08:35:37;97777.06;;;13.75;60.60
9822;BME280;4950;46.042;14.472;2023-03-23T08:38:04;97767.47;;;13.89;60.07
9822;BME280;4950;46.042;14.472;2023-03-23T08:40:31;97773.91;;;14.06;58.41
9822;BME280;4950;46.042;14.472;2023-03-23T08:42:59;97776.50;;;14.19;58.03
9822;BME280;4950;46.042;14.472;2023-03-23T08:45:26;97771.91;;;14.41;57.57
9822;BME280;4950;46.042;14.472;2023-03-23T08:47:53;97774.31;;;14.43;56.53
9822;BME280;4950;46.042;14.472;2023-03-23T08:50:22;97771.91;;;14.55;57.00
9822;BME280;4950;46.042;14.472;2023-03-23T08:52:50;97770.72;;;14.64;57.49
9822;BME280;4950;46.042;14.472;2023-03-23T08:55:17;97767.50;;;14.75;56.28
9822;BME280;4950;46.042;14.472;2023-03-23T08:57:44;97767.47;;;14.89;56.62
9822;BME280;4950;46.042;14.472;2023-03-23T09:00:15;97771.06;;;15.08;56.82
9822;BME280;4950;46.042;14.472;2023-03-23T09:02:44;97764.56;;;15.17;56.49
9822;BME280;4950;46.042;14.472;2023-03-23T09:05:12;97768.16;;;15.29;56.62
9822;BME280;4950;46.042;14.472;2023-03-23T09:07:41;97759.84;;;15.46;55.13
9822;BME280;4950;46.042;14.472;2023-03-23T09:10:09;97757.75;;;15.61;54.38
9822;BME280;4950;46.042;14.472;2023-03-23T09:12:36;97759.13;;;15.70;53.86
9822;BME280;4950;46.042;14.472;2023-03-23T09:15:04;97757.03;;;15.86;54.13
9822;BME280;4950;46.042;14.472;2023-03-23T09:17:36;97753.53;;;15.98;53.23
9822;BME280;4950;46.042;14.472;2023-03-23T09:20:05;97752.84;;;16.10;52.75
9822;BME280;4950;46.042;14.472;2023-03-23T09:22:36;97752.97;;;16.22;53.16
9822;BME280;4950;46.042;14.472;2023-03-23T09:25:04;97751.25;;;16.34;52.12
9822;BME280;4950;46.042;14.472;2023-03-23T09:27:31;97755.38;;;16.48;52.06
9822;BME280;4950;46.042;14.472;2023-03-23T09:30:02;97758.03;;;16.67;51.28
9822;BME280;4950;46.042;14.472;2023-03-23T09:32:32;97746.56;;;16.86;51.20
9822;BME280;4950;46.042;14.472;2023-03-23T09:35:00;97743.72;;;17.06;50.69
9822;BME280;4950;46.042;14.472;2023-03-23T09:37:27;97741.47;;;17.28;50.00
9822;BME280;4950;46.042;14.472;2023-03-23T09:39:54;97746.69;;;17.47;49.39
9822;BME280;4950;46.042;14.472;2023-03-23T09:42:32;97745.47;;;17.61;48.74
9822;BME280;4950;46.042;14.472;2023-03-23T09:45:10;97736.16;;;17.77;48.11
9822;BME280;4950;46.042;14.472;2023-03-23T09:47:45;97731.59;;;17.91;47.64
9822;BME280;4950;46.042;14.472;2023-03-23T09:50:18;97731.25;;;17.99;48.40
9822;BME280;4950;46.042;14.472;2023-03-23T09:52:48;97731.38;;;18.16;47.83
9822;BME280;4950;46.042;14.472;2023-03-23T09:55:18;97722.63;;;18.34;48.42
9822;BME280;4950;46.042;14.472;2023-03-23T09:57:49;97724.44;;;18.57;47.37
9822;BME280;4950;46.042;14.472;2023-03-23T10:00:21;97718.16;;;18.70;47.29
9822;BME280;4950;46.042;14.472;2023-03-23T10:02:57;97714.38;;;18.89;46.42
9822;BME280;4950;46.042;14.472;2023-03-23T10:05:33;97708.06;;;19.02;45.29
9822;BME280;4950;46.042;14.472;2023-03-23T10:08:05;97708.25;;;19.12;46.02
9822;BME280;4950;46.042;14.472;2023-03-23T10:10:39;97705.03;;;19.22;45.65
9822;BME280;4950;46.042;14.472;2023-03-23T10:13:17;97704.03;;;19.40;44.59
9822;BME280;4950;46.042;14.472;2023-03-23T10:15:47;97695.94;;;19.59;44.84
9822;BME280;4950;46.042;14.472;2023-03-23T10:18:17;97705.34;;;19.83;44.71
9822;BME280;4950;46.042;14.472;2023-03-23T10:20:50;97700.09;;;20.00;43.91
9822;BME280;4950;46.042;14.472;2023-03-23T10:23:41;97690.75;;;20.09;41.28
9822;BME280;4950;46.042;14.472;2023-03-23T10:26:16;97692.34;;;20.10;41.84
9822;BME280;4950;46.042;14.472;2023-03-23T10:28:48;97692.03;;;20.24;41.84
9822;BME280;4950;46.042;14.472;2023-03-23T10:31:21;97691.44;;;20.39;41.08
9822;BME280;4950;46.042;14.472;2023-03-23T10:33:50;97702.38;;;20.30;40.45
9822;BME280;4950;46.042;14.472;2023-03-23T10:36:23;97684.25;;;20.17;41.57
9822;BME280;4950;46.042;14.472;2023-03-23T10:38:56;97680.41;;;20.42;40.67
9822;BME280;4950;46.042;14.472;2023-03-23T10:41:24;97686.47;;;20.59;40.42
9822;BME280;4950;46.042;14.472;2023-03-23T10:43:51;97677.16;;;20.74;40.01
9822;BME280;4950;46.042;14.472;2023-03-23T10:46:29;97685.59;;;20.70;39.64
9822;BME280;4950;46.042;14.472;2023-03-23T10:49:02;97686.44;;;20.76;39.43
9822;BME280;4950;46.042;14.472;2023-03-23T10:51:33;97688.22;;;20.93;39.28
9822;BME280;4950;46.042;14.472;2023-03-23T10:54:02;97682.63;;;20.89;39.12
9822;BME280;4950;46.042;14.472;2023-03-23T10:56:36;97671.78;;;21.07;38.87
9822;BME280;4950;46.042;14.472;2023-03-23T10:59:25;97675.28;;;21.13;38.73
9822;BME280;4950;46.042;14.472;2023-03-23T11:01:55;97676.81;;;21.36;37.90
9822;BME280;4950;46.042;14.472;2023-03-23T11:04:22;97680.16;;;21.26;37.87
9822;BME280;4950;46.042;14.472;2023-03-23T11:06:52;97670.56;;;21.20;37.77
9822;BME280;4950;46.042;14.472;2023-03-23T11:09:21;97673.88;;;21.05;38.07
9822;BME280;4950;46.042;14.472;2023-03-23T11:11:49;97665.69;;;20.85;38.57
9822;BME280;4950;46.042;14.472;2023-03-23T11:14:19;97675.03;;;20.70;38.52
9822;BME280;4950;46.042;14.472;2023-03-23T11:16:49;97674.78;;;20.72;38.77
9822;BME280;4950;46.042;14.472;2023-03-23T11:19:22;97671.56;;;20.70;38.90
9822;BME280;4950;46.042;14.472;2023-03-23T11:21:54;97664.84;;;20.79;38.59
9822;BME280;4950;46.042;14.472;2023-03-23T11:24:22;97676.19;;;20.80;38.34
9822;BME280;4950;46.042;14.472;2023-03-23T11:26:52;97671.56;;;20.70;38.88
9822;BME280;4950;46.042;14.472;2023-03-23T11:29:20;97663.41;;;20.71;38.95
9822;BME280;4950;46.042;14.472;2023-03-23T11:31:50;97670.41;;;20.61;38.86
9822;BME280;4950;46.042;14.472;2023-03-23T11:34:20;97668.94;;;20.70;38.42
9822;BME280;4950;46.042;14.472;2023-03-23T11:36:49;97665.91;;;20.78;38.47
9822;BME280;4950;46.042;14.472;2023-03-23T11:39:24;97655.56;;;20.77;38.27
9822;BME280;4950;46.042;14.472;2023-03-23T11:41:51;97663.25;;;20.78;38.08
9822;BME280;4950;46.042;14.472;2023-03-23T11:44:21;97658.63;;;20.90;38.56
9822;BME280;4950;46.042;14.472;2023-03-23T11:46:53;97666.13;;;20.99;37.92
9822;BME280;4950;46.042;14.472;2023-03-23T11:49:36;97655.53;;;20.94;37.70
9822;BME280;4950;46.042;14.472;2023-03-23T11:52:11;97657.03;;;20.89;37.94
9822;BME280;4950;46.042;14.472;2023-03-23T11:54:46;97661.16;;;20.80;38.20
9822;BME280;4950;46.042;14.472;2023-03-23T11:57:14;97659.44;;;20.91;38.38
9822;BME280;4950;46.042;14.472;2023-03-23T11:59:41;97667.59;;;21.12;37.79
9822;BME280;4950;46.042;14.472;2023-03-23T12:02:30;97665.84;;;21.44;37.45
9822;BME280;4950;46.042;14.472;2023-03-23T12:08:20;97647.94;;;21.84;36.47
9822;BME280;4950;46.042;14.472;2023-03-23T12:10:58;97645.31;;;21.84;35.82
9822;BME280;4950;46.042;14.472;2023-03-23T12:13:48;97645.69;;;21.98;35.87
9822;BME280;4950;46.042;14.472;2023-03-23T12:16:29;97640.44;;;22.08;35.80
9822;BME280;4950;46.042;14.472;2023-03-23T12:19:03;97635.28;;;21.86;35.22
9822;BME280;4950;46.042;14.472;2023-03-23T12:21:40;97644.03;;;21.59;36.16
9822;BME280;4950;46.042;14.472;2023-03-23T12:24:17;97644.25;;;21.53;36.28
9822;BME280;4950;46.042;14.472;2023-03-23T12:26:55;97642.28;;;21.43;36.38
9822;BME280;4950;46.042;14.472;2023-03-23T12:29:34;97649.59;;;21.36;36.54
9822;BME280;4950;46.042;14.472;2023-03-23T12:32:23;97634.31;;;21.65;37.01
9822;BME280;4950;46.042;14.472;2023-03-23T12:35:00;97647.91;;;21.79;37.00
9822;BME280;4950;46.042;14.472;2023-03-23T12:37:41;97651.56;;;21.73;36.39
9822;BME280;4950;46.042;14.472;2023-03-23T12:40:29;97645.81;;;21.48;36.73
9822;BME280;4950;46.042;14.472;2023-03-23T12:43:05;97634.94;;;21.45;37.10
9822;BME280;4950;46.042;14.472;2023-03-23T12:48:29;97641.94;;;21.34;36.18
9822;BME280;4950;46.042;14.472;2023-03-23T12:51:12;97643.38;;;21.20;36.19
9822;BME280;4950;46.042;14.472;2023-03-23T12:53:46;97641.44;;;21.10;36.63
9822;BME280;4950;46.042;14.472;2023-03-23T12:56:17;97636.78;;;21.17;36.56
9822;BME280;4950;46.042;14.472;2023-03-23T12:58:51;97626.91;;;21.35;35.97
9822;BME280;4950;46.042;14.472;2023-03-23T13:01:24;97642.25;;;21.38;36.52
9822;BME280;4950;46.042;14.472;2023-03-23T13:03:56;97628.25;;;21.37;36.26
9822;BME280;4950;46.042;14.472;2023-03-23T13:06:28;97635.03;;;21.55;35.68
9822;BME280;4950;46.042;14.472;2023-03-23T13:09:02;97626.22;;;21.77;35.30
9822;BME280;4950;46.042;14.472;2023-03-23T13:11:33;97620.81;;;21.94;34.93
9822;BME280;4950;46.042;14.472;2023-03-23T13:14:18;97620.56;;;21.95;35.34
9822;BME280;4950;46.042;14.472;2023-03-23T13:16:52;97626.19;;;22.09;34.87
9822;BME280;4950;46.042;14.472;2023-03-23T13:19:27;97621.28;;;22.28;34.18
9822;BME280;4950;46.042;14.472;2023-03-23T13:22:01;97634.09;;;22.52;33.99
9822;BME280;4950;46.042;14.472;2023-03-23T13:24:35;97620.38;;;22.55;33.35
9822;BME280;4950;46.042;14.472;2023-03-23T13:27:04;97634.38;;;22.55;33.47
9822;BME280;4950;46.042;14.472;2023-03-23T13:29:33;97621.25;;;22.76;33.37
9822;BME280;4950;46.042;14.472;2023-03-23T13:32:05;97612.53;;;22.80;33.21
9822;BME280;4950;46.042;14.472;2023-03-23T13:34:34;97613.38;;;23.01;33.14
9822;BME280;4950;46.042;14.472;2023-03-23T13:37:03;97605.66;;;22.79;32.77
9822;BME280;4950;46.042;14.472;2023-03-23T13:39:34;97604.25;;;22.61;33.80
9822;BME280;4950;46.042;14.472;2023-03-23T13:42:05;97603.72;;;22.54;33.54